Time;durP1;ratioP1;P1;durP2;ratioP2;P2;SDS_P1;SDS_P2;PMS_P1;PMS_P2;Temp;Humidity;BMP_temperature;BMP_pressure;BME280_temperature;BME280_humidity;BME280_pressure;Samples;Min_cycle;Max_cycle;Signal;HPM_P1;HPM_P2
2023/10/21 00:00:32;;;;;;;13.93;7.13;;;13.50;99.90;;;;;;5032399;28;20500;-85
2023/10/21 00:02:58;;;;;;;12.13;6.50;;;13.50;99.90;;;;;;5032563;28;20542;-84
2023/10/21 00:05:25;;;;;;;8.35;6.07;;;13.50;99.90;;;;;;5033226;28;20141;-85
2023/10/21 00:07:51;;;;;;;12.45;7.45;;;13.40;99.90;;;;;;5032674;28;20021;-84
2023/10/21 00:10:17;;;;;;;12.23;6.50;;;13.50;99.90;;;;;;5031478;28;20051;-84
2023/10/21 00:12:44;;;;;;;14.80;7.07;;;13.40;99.90;;;;;;5030974;28;20491;-85
2023/10/21 00:15:10;;;;;;;17.20;6.70;;;13.40;99.90;;;;;;5032206;28;20105;-83
2023/10/21 00:17:36;;;;;;;11.13;6.47;;;13.40;99.90;;;;;;5031977;28;20026;-83
2023/10/21 00:20:06;;;;;;;7.82;5.93;;;13.40;99.90;;;;;;5032792;28;20032;-84
2023/10/21 00:22:38;;;;;;;7.70;6.03;;;13.40;99.90;;;;;;5032451;28;20418;-84
2023/10/21 00:25:04;;;;;;;11.75;6.30;;;13.40;99.90;;;;;;5032209;28;20397;-84
2023/10/21 00:27:30;;;;;;;10.93;6.00;;;13.30;99.90;;;;;;5032195;28;20091;-84
2023/10/21 00:29:55;;;;;;;14.13;6.20;;;13.60;99.90;;;;;;5031661;28;20049;-84
2023/10/21 00:32:21;;;;;;;11.60;6.05;;;13.30;99.90;;;;;;5032076;28;20508;-84
2023/10/21 00:34:47;;;;;;;12.27;6.35;;;13.30;99.90;;;;;;5031891;28;20017;-83
2023/10/21 00:37:12;;;;;;;7.78;5.93;;;13.40;99.90;;;;;;5031799;28;20033;-84
2023/10/21 00:39:38;;;;;;;11.82;6.38;;;13.40;99.90;;;;;;5032230;28;20021;-84
2023/10/21 00:42:05;;;;;;;9.23;5.72;;;13.50;99.90;;;;;;5032097;28;20114;-84
2023/10/21 00:44:31;;;;;;;10.80;6.25;;;13.40;99.90;;;;;;5031973;28;20061;-85
2023/10/21 00:47:00;;;;;;;10.13;5.68;;;13.40;99.90;;;;;;5032147;28;20029;-84
2023/10/21 00:49:28;;;;;;;8.23;5.72;;;13.40;99.90;;;;;;5032141;28;20026;-83
2023/10/21 00:51:55;;;;;;;11.48;6.40;;;13.40;99.90;;;;;;5030561;28;20175;-84
2023/10/21 00:54:24;;;;;;;6.80;5.93;;;13.40;99.90;;;;;;5032104;28;20470;-83
2023/10/21 00:56:50;;;;;;;10.70;5.63;;;13.40;99.90;;;;;;5031909;28;20094;-84
2023/10/21 00:59:19;;;;;;;9.70;5.75;;;14.30;99.90;;;;;;5031364;28;20428;-83
2023/10/21 01:01:45;;;;;;;9.48;5.75;;;13.40;99.90;;;;;;5032059;28;20034;-83
2023/10/21 01:04:13;;;;;;;7.13;5.63;;;13.40;99.90;;;;;;5031963;28;20469;-84
2023/10/21 01:06:42;;;;;;;8.50;6.47;;;13.40;99.90;;;;;;5031278;28;20063;-83
2023/10/21 01:09:07;;;;;;;11.63;6.57;;;13.40;99.90;;;;;;5035231;28;20026;-83
2023/10/21 01:11:33;;;;;;;9.80;6.40;;;13.40;99.90;;;;;;5036155;28;20461;-84
2023/10/21 01:13:58;;;;;;;9.35;6.30;;;13.50;99.90;;;;;;5035212;28;20077;-83
2023/10/21 01:16:24;;;;;;;9.90;6.30;;;13.40;99.90;;;;;;5035571;28;20060;-83
2023/10/21 01:18:49;;;;;;;22.25;6.82;;;14.30;99.90;;;;;;5035536;28;20037;-83
2023/10/21 01:21:15;;;;;;;7.07;5.40;;;13.40;99.90;;;;;;5035356;28;20026;-83
2023/10/21 01:23:41;;;;;;;17.95;6.72;;;13.40;99.90;;;;;;5035709;28;20021;-83
2023/10/21 01:26:07;;;;;;;9.80;5.70;;;14.20;99.90;;;;;;5032163;28;20163;-81
2023/10/21 01:28:33;;;;;;;10.10;6.40;;;13.40;99.90;;;;;;5023682;28;20501;-83
2023/10/21 01:30:59;;;;;;;15.07;6.22;;;13.60;99.90;;;;;;5030212;28;20033;-82
2023/10/21 01:33:26;;;;;;;10.57;5.30;;;13.40;99.90;;;;;;5035322;28;20026;-83
2023/10/21 01:35:52;;;;;;;10.20;5.50;;;13.50;99.90;;;;;;5034706;28;20478;-83
2023/10/21 01:38:20;;;;;;;10.35;5.47;;;13.50;99.90;;;;;;5035931;28;20040;-83
2023/10/21 01:40:47;;;;;;;10.02;5.50;;;13.50;99.90;;;;;;5034691;28;20087;-84
2023/10/21 01:43:13;;;;;;;7.40;5.35;;;13.50;99.90;;;;;;5035419;28;20030;-83
2023/10/21 01:45:38;;;;;;;8.23;4.88;;;13.50;99.90;;;;;;5035231;28;20048;-83
2023/10/21 01:48:05;;;;;;;6.82;5.13;;;13.50;99.90;;;;;;5034862;28;20018;-84
2023/10/21 01:50:31;;;;;;;8.85;4.90;;;13.50;99.90;;;;;;5035246;28;20034;-83
2023/10/21 01:52:57;;;;;;;12.77;6.25;;;13.50;99.90;;;;;;5035018;28;20029;-83
2023/10/21 01:55:23;;;;;;;10.70;5.55;;;14.30;99.90;;;;;;5034657;28;20037;-83
2023/10/21 01:57:49;;;;;;;10.63;5.90;;;13.50;99.90;;;;;;5034506;28;20454;-84
2023/10/21 02:00:18;;;;;;;8.10;5.65;;;13.50;99.90;;;;;;5035289;28;20120;-84
2023/10/21 02:03:03;;;;;;;12.63;5.20;;;13.50;99.90;;;;;;5034288;28;20030;-84
2023/10/21 02:05:31;;;;;;;10.45;5.40;;;13.50;99.90;;;;;;5034695;28;20029;-84
2023/10/21 02:07:57;;;;;;;6.28;5.68;;;14.70;99.90;;;;;;5034834;28;20381;-83
2023/10/21 02:10:22;;;;;;;11.93;5.40;;;13.50;99.90;;;;;;5034673;28;20051;-84
2023/10/21 02:12:48;;;;;;;9.77;5.60;;;13.40;99.90;;;;;;5034680;28;20363;-83
2023/10/21 02:15:16;;;;;;;7.15;5.45;;;13.40;99.90;;;;;;5035154;28;20233;-84
2023/10/21 02:17:43;;;;;;;9.32;5.57;;;14.50;99.90;;;;;;5033900;28;20029;-84
2023/10/21 02:20:11;;;;;;;7.53;5.63;;;13.40;99.90;;;;;;5034151;28;20025;-84
2023/10/21 02:22:37;;;;;;;8.90;5.38;;;13.40;99.90;;;;;;5033973;28;20029;-83
2023/10/21 02:25:03;;;;;;;11.52;5.45;;;13.40;99.90;;;;;;5033944;28;20056;-84
2023/10/21 02:27:28;;;;;;;10.13;6.25;;;13.40;99.90;;;;;;5034631;28;20025;-84
2023/10/21 02:29:54;;;;;;;9.10;5.78;;;13.40;99.90;;;;;;5033870;28;20032;-84
2023/10/21 02:32:31;;;;;;;8.13;5.65;;;13.30;99.90;;;;;;5034906;28;20038;-84
2023/10/21 02:34:57;;;;;;;5.80;5.28;;;13.30;99.90;;;;;;5035066;28;20032;-85
2023/10/21 02:37:23;;;;;;;7.93;5.80;;;13.90;99.90;;;;;;5034117;28;20033;-85
2023/10/21 02:39:48;;;;;;;9.45;5.53;;;13.30;99.90;;;;;;5034458;28;20097;-85
2023/10/21 02:42:14;;;;;;;9.50;6.13;;;13.20;99.90;;;;;;5034566;28;20033;-85
2023/10/21 02:44:39;;;;;;;11.05;5.97;;;13.20;99.90;;;;;;5033602;28;20121;-85
2023/10/21 02:47:05;;;;;;;10.50;5.93;;;13.20;99.90;;;;;;5034155;28;20029;-84
2023/10/21 02:49:30;;;;;;;11.93;6.05;;;13.20;99.90;;;;;;5036751;28;20128;-84
2023/10/21 02:51:56;;;;;;;6.75;5.57;;;13.20;99.90;;;;;;5038967;28;20072;-84
2023/10/21 02:54:21;;;;;;;5.85;5.30;;;13.20;99.90;;;;;;5037638;28;20024;-85
2023/10/21 02:56:47;;;;;;;7.70;6.00;;;14.20;99.90;;;;;;5034569;28;20473;-84
2023/10/21 02:59:13;;;;;;;12.82;6.38;;;13.20;99.90;;;;;;5033739;28;20473;-83
2023/10/21 03:01:41;;;;;;;5.93;5.40;;;13.20;99.90;;;;;;5034242;28;20543;-84
2023/10/21 03:04:07;;;;;;;13.10;6.35;;;12.20;99.90;;;;;;5034335;28;20369;-84
2023/10/21 03:06:33;;;;;;;8.35;5.78;;;13.20;99.90;;;;;;5033583;28;20029;-83
2023/10/21 03:08:59;;;;;;;7.55;5.32;;;14.10;99.90;;;;;;5033162;28;20037;-84
2023/10/21 03:11:25;;;;;;;7.90;5.78;;;13.20;99.90;;;;;;5033705;28;20056;-83
2023/10/21 03:14:06;;;;;;;9.55;5.80;;;13.10;99.90;;;;;;5032816;28;20050;-84
2023/10/21 03:16:31;;;;;;;9.75;5.50;;;13.60;99.90;;;;;;5033837;28;20033;-84
2023/10/21 03:18:57;;;;;;;10.70;5.97;;;13.20;99.90;;;;;;5032664;28;20075;-84
2023/10/21 03:21:23;;;;;;;7.72;5.40;;;13.10;99.90;;;;;;5034245;28;20030;-84
2023/10/21 03:24:15;;;;;;;10.93;6.18;;;13.10;99.90;;;;;;5033714;28;20564;-84
2023/10/21 03:26:59;;;;;;;7.30;5.60;;;14.30;99.90;;;;;;5001874;28;20507;-84
2023/10/21 03:29:24;;;;;;;8.25;5.50;;;14.40;99.90;;;;;;5033982;28;20056;-84
2023/10/21 03:31:50;;;;;;;8.93;5.57;;;13.10;99.90;;;;;;5032170;28;20501;-84
2023/10/21 03:34:16;;;;;;;7.28;5.90;;;13.10;99.90;;;;;;5032046;28;20033;-84
2023/10/21 03:36:41;;;;;;;5.60;5.03;;;13.30;99.90;;;;;;5032990;28;20037;-84
2023/10/21 03:39:07;;;;;;;8.73;5.43;;;13.10;99.90;;;;;;5013738;28;20585;-84
2023/10/21 03:41:33;;;;;;;9.73;5.55;;;13.10;99.90;;;;;;5016597;28;20030;-84
2023/10/21 03:43:58;;;;;;;11.27;5.95;;;13.20;99.90;;;;;;5033322;28;20018;-83
2023/10/21 03:46:24;;;;;;;11.77;6.53;;;13.00;99.90;;;;;;5033417;28;20025;-83
2023/10/21 03:48:50;;;;;;;7.25;5.78;;;13.00;99.90;;;;;;5032052;28;20152;-82
2023/10/21 03:51:16;;;;;;;6.63;5.60;;;13.10;99.90;;;;;;5033184;28;20069;-83
2023/10/21 03:53:43;;;;;;;13.13;5.93;;;13.10;99.90;;;;;;5031829;28;20492;-84
2023/10/21 03:56:09;;;;;;;8.02;6.20;;;13.80;99.90;;;;;;5032666;28;20109;-83
2023/10/21 03:58:35;;;;;;;11.45;6.43;;;13.00;99.90;;;;;;5033015;28;20030;-83
2023/10/21 04:01:01;;;;;;;11.05;5.60;;;13.00;99.90;;;;;;5032623;28;20023;-83
2023/10/21 04:03:27;;;;;;;12.18;5.85;;;12.90;99.90;;;;;;5032748;28;20108;-83
2023/10/21 04:05:53;;;;;;;9.55;5.57;;;12.70;99.90;;;;;;5032309;28;20477;-83
2023/10/21 04:08:19;;;;;;;10.35;5.93;;;13.00;99.90;;;;;;5032407;28;20083;-83
2023/10/21 04:10:45;;;;;;;9.50;5.60;;;13.00;99.90;;;;;;5032240;28;20461;-84
2023/10/21 04:13:11;;;;;;;5.68;5.10;;;13.50;99.90;;;;;;5031722;28;20041;-83
2023/10/21 04:15:37;;;;;;;8.15;5.13;;;13.00;99.90;;;;;;5031819;28;20128;-84
2023/10/21 04:18:03;;;;;;;7.82;5.10;;;13.00;99.90;;;;;;5032678;28;20112;-83
2023/10/21 04:20:29;;;;;;;10.38;4.93;;;13.00;99.90;;;;;;5032596;28;20075;-83
2023/10/21 04:22:55;;;;;;;9.55;5.55;;;13.00;99.90;;;;;;5031493;28;20030;-83
2023/10/21 04:25:21;;;;;;;9.70;5.85;;;13.00;99.90;;;;;;5032801;28;20068;-84
2023/10/21 04:27:47;;;;;;;5.78;4.95;;;13.00;99.90;;;;;;5032328;28;20034;-87
2023/10/21 04:30:12;;;;;;;8.00;5.22;;;13.00;99.90;;;;;;5031718;28;20497;-84
2023/10/21 04:32:38;;;;;;;6.10;5.50;;;13.00;99.90;;;;;;5032344;28;20061;-83
2023/10/21 04:35:04;;;;;;;9.02;5.20;;;13.00;99.90;;;;;;5031879;28;20018;-83
2023/10/21 04:37:31;;;;;;;10.43;5.20;;;13.00;99.90;;;;;;5031564;28;20029;-83
2023/10/21 04:39:56;;;;;;;6.97;4.63;;;13.00;99.90;;;;;;5032474;28;20043;-84
2023/10/21 04:42:23;;;;;;;6.90;4.70;;;13.00;99.90;;;;;;5032416;28;20018;-84
2023/10/21 04:44:49;;;;;;;8.15;5.30;;;13.10;99.90;;;;;;5031292;28;20025;-83
2023/10/21 04:47:15;;;;;;;6.07;4.70;;;12.90;99.90;;;;;;5032180;28;20033;-84
2023/10/21 04:49:44;;;;;;;5.85;4.65;;;12.90;99.90;;;;;;5031921;28;20029;-83
2023/10/21 04:52:14;;;;;;;10.40;5.03;;;12.90;99.90;;;;;;5031416;28;20033;-84
2023/10/21 04:54:41;;;;;;;12.52;5.05;;;12.90;99.90;;;;;;5031548;28;20018;-83
2023/10/21 04:57:06;;;;;;;11.35;5.05;;;12.90;99.90;;;;;;5031468;28;20525;-83
2023/10/21 04:59:33;;;;;;;10.63;5.20;;;13.00;99.90;;;;;;5031367;28;20112;-83
2023/10/21 05:01:58;;;;;;;8.18;5.63;;;13.60;99.90;;;;;;5032301;28;20032;-84
2023/10/21 05:04:24;;;;;;;9.80;4.88;;;13.00;99.90;;;;;;5031497;28;20108;-84
2023/10/21 05:07:07;;;;;;;12.05;5.90;;;13.10;99.90;;;;;;5031643;28;20079;-84
2023/10/21 05:09:33;;;;;;;10.20;5.50;;;13.10;99.90;;;;;;5032175;28;20029;-84
2023/10/21 05:12:00;;;;;;;10.55;5.85;;;14.10;99.90;;;;;;5031317;28;20033;-83
2023/10/21 05:14:28;;;;;;;6.20;5.47;;;14.60;99.90;;;;;;5031956;28;20045;-83
2023/10/21 05:16:54;;;;;;;10.18;6.00;;;13.90;99.90;;;;;;5031047;28;20527;-83
2023/10/21 05:19:26;;;;;;;11.88;6.15;;;14.00;99.90;;;;;;5030747;28;20045;-83
2023/10/21 05:21:51;;;;;;;6.90;5.38;;;13.00;99.90;;;;;;5031860;28;20096;-83
2023/10/21 05:24:17;;;;;;;14.52;7.38;;;13.20;99.90;;;;;;5031822;28;20084;-83
2023/10/21 05:26:42;;;;;;;13.73;6.68;;;13.30;99.90;;;;;;5030798;28;20022;-84
2023/10/21 05:29:08;;;;;;;9.77;6.28;;;13.30;99.90;;;;;;5031873;28;20071;-83
2023/10/21 05:31:33;;;;;;;7.82;6.35;;;13.30;99.90;;;;;;5031176;28;20076;-83
2023/10/21 05:34:05;;;;;;;11.18;6.63;;;13.30;99.90;;;;;;5031214;28;20053;-83
2023/10/21 05:36:30;;;;;;;18.13;7.10;;;13.30;99.90;;;;;;5031634;28;20032;-83
2023/10/21 05:38:56;;;;;;;9.13;6.57;;;13.40;99.90;;;;;;5031119;28;20108;-83
2023/10/21 05:41:22;;;;;;;11.52;5.75;;;14.00;99.90;;;;;;5031136;28;20105;-83
2023/10/21 05:43:47;;;;;;;9.68;6.13;;;13.40;99.90;;;;;;5031759;28;20373;-83
2023/10/21 05:46:13;;;;;;;10.07;5.55;;;13.40;99.90;;;;;;5031700;28;20029;-83
2023/10/21 05:48:40;;;;;;;10.55;5.68;;;13.40;99.90;;;;;;5030901;28;20045;-83
2023/10/21 05:51:05;;;;;;;11.25;5.57;;;13.50;99.90;;;;;;5031414;28;20436;-83
2023/10/21 05:53:31;;;;;;;13.15;6.03;;;13.50;99.90;;;;;;5032452;28;20014;-84
2023/10/21 05:55:57;;;;;;;13.45;5.75;;;13.50;99.90;;;;;;5034568;28;20029;-83
2023/10/21 05:58:24;;;;;;;10.23;6.28;;;13.50;99.90;;;;;;5037318;28;20029;-83
2023/10/21 06:00:49;;;;;;;11.52;6.40;;;13.40;99.90;;;;;;5036303;28;20610;-83
2023/10/21 06:03:15;;;;;;;12.32;6.13;;;13.40;99.90;;;;;;5036553;28;20535;-84
2023/10/21 06:05:41;;;;;;;8.88;5.70;;;13.40;99.90;;;;;;5036205;28;20025;-82
2023/10/21 06:08:07;;;;;;;12.48;5.30;;;13.40;99.90;;;;;;5036743;28;20026;-85
2023/10/21 06:10:34;;;;;;;7.80;4.80;;;13.40;99.90;;;;;;5034073;28;20034;-84
2023/10/21 06:13:00;;;;;;;9.55;5.50;;;14.10;99.90;;;;;;5034448;28;20033;-83
2023/10/21 06:15:26;;;;;;;10.73;5.75;;;13.40;99.90;;;;;;5033858;28;20028;-83
2023/10/21 06:17:51;;;;;;;11.25;6.15;;;13.70;99.90;;;;;;5034359;28;20025;-83
2023/10/21 06:20:17;;;;;;;8.77;5.88;;;13.40;99.90;;;;;;5034610;28;20032;-82
2023/10/21 06:22:43;;;;;;;9.05;5.47;;;13.40;99.90;;;;;;5033895;28;20478;-83
2023/10/21 06:25:10;;;;;;;9.77;5.22;;;13.40;99.90;;;;;;5034818;28;20028;-83
2023/10/21 06:27:36;;;;;;;6.55;4.95;;;13.40;99.90;;;;;;5034382;28;20101;-84
2023/10/21 06:30:03;;;;;;;15.48;5.72;;;13.70;99.90;;;;;;5033541;28;20022;-84
2023/10/21 06:32:28;;;;;;;13.18;5.18;;;13.40;99.90;;;;;;5015176;28;20133;-83
2023/10/21 06:34:54;;;;;;;10.43;5.57;;;13.40;99.90;;;;;;5028796;28;20116;-83
2023/10/21 06:37:19;;;;;;;11.73;5.72;;;13.40;99.90;;;;;;5033824;28;20056;-84
2023/10/21 06:39:45;;;;;;;6.35;5.47;;;13.40;99.90;;;;;;5034053;28;20018;-85
2023/10/21 06:42:11;;;;;;;13.13;5.07;;;13.50;99.90;;;;;;5034586;28;20512;-84
2023/10/21 06:44:36;;;;;;;13.00;5.13;;;13.50;99.90;;;;;;5033595;28;20017;-83
2023/10/21 06:47:02;;;;;;;12.73;5.40;;;13.50;99.90;;;;;;5034824;28;20489;-85
2023/10/21 06:49:27;;;;;;;11.25;5.07;;;13.50;99.90;;;;;;5034509;28;20359;-83
2023/10/21 06:51:55;;;;;;;8.93;5.10;;;13.50;99.90;;;;;;5030687;28;20608;-84
2023/10/21 06:54:21;;;;;;;8.75;4.97;;;13.50;99.90;;;;;;5034589;28;20117;-84
2023/10/21 06:57:02;;;;;;;7.85;4.97;;;13.50;99.90;;;;;;5015863;28;20345;-84
2023/10/21 06:59:27;;;;;;;9.77;4.35;;;13.50;99.90;;;;;;5034588;28;20018;-83
2023/10/21 07:01:53;;;;;;;13.70;5.07;;;14.60;99.90;;;;;;5034071;28;20355;-84
2023/10/21 07:04:18;;;;;;;9.75;5.00;;;14.40;99.90;;;;;;5033231;28;20037;-85
2023/10/21 07:06:45;;;;;;;8.73;5.18;;;13.50;99.90;;;;;;5033828;28;20495;-84
2023/10/21 07:09:11;;;;;;;8.27;4.55;;;13.50;99.90;;;;;;5034286;28;20030;-84
2023/10/21 07:11:37;;;;;;;10.25;5.07;;;13.50;99.90;;;;;;5032320;28;20504;-85
2023/10/21 07:14:03;;;;;;;7.45;4.85;;;13.60;99.90;;;;;;5033789;28;20045;-85
2023/10/21 07:16:29;;;;;;;9.75;4.55;;;13.50;99.90;;;;;;5033929;28;20080;-84
2023/10/21 07:18:54;;;;;;;10.00;4.85;;;13.60;99.90;;;;;;5034611;28;20030;-84
2023/10/21 07:21:20;;;;;;;9.75;4.60;;;13.70;99.90;;;;;;5033457;28;20026;-84
2023/10/21 07:23:46;;;;;;;8.98;4.50;;;13.50;99.90;;;;;;5032820;28;20474;-85
2023/10/21 07:26:12;;;;;;;6.00;4.47;;;13.60;99.90;;;;;;5032843;28;20036;-84
2023/10/21 07:28:38;;;;;;;6.32;3.40;;;14.00;99.90;;;;;;5033592;28;20026;-85
2023/10/21 07:31:03;;;;;;;6.80;3.85;;;13.70;99.90;;;;;;5033645;28;20418;-86
2023/10/21 07:33:29;;;;;;;6.95;3.08;;;13.60;99.90;;;;;;5032790;28;20037;-87
2023/10/21 07:35:54;;;;;;;3.90;3.17;;;13.40;99.90;;;;;;5033207;28;20077;-86
2023/10/21 07:38:21;;;;;;;4.65;3.72;;;13.20;99.90;;;;;;5033279;28;20025;-85
2023/10/21 07:40:47;;;;;;;5.60;3.33;;;13.70;99.90;;;;;;5032203;28;20032;-85
2023/10/21 07:43:13;;;;;;;5.28;3.40;;;13.60;99.90;;;;;;5032839;28;20034;-83
2023/10/21 07:45:42;;;;;;;8.57;4.05;;;13.80;99.90;;;;;;5032726;28;20076;-85
2023/10/21 07:48:08;;;;;;;4.65;3.63;;;14.00;99.90;;;;;;5031701;28;20469;-84
2023/10/21 07:50:33;;;;;;;6.57;3.75;;;14.40;99.90;;;;;;5032523;28;20033;-89
2023/10/21 07:52:59;;;;;;;4.53;3.95;;;14.00;99.90;;;;;;5028641;28;20028;-83
2023/10/21 07:55:25;;;;;;;7.97;4.15;;;13.60;99.90;;;;;;5032000;28;20021;-85
2023/10/21 07:57:50;;;;;;;4.53;3.20;;;13.60;99.90;;;;;;5032703;28;20033;-84
2023/10/21 08:00:16;;;;;;;9.48;3.72;;;14.50;99.90;;;;;;5032129;28;20053;-84
2023/10/21 08:02:42;;;;;;;6.85;3.72;;;13.60;99.90;;;;;;5032816;28;20045;-83
2023/10/21 08:05:08;;;;;;;3.50;3.05;;;13.70;99.90;;;;;;5033299;28;20036;-83
2023/10/21 08:07:35;;;;;;;5.07;2.88;;;13.70;99.90;;;;;;5032153;28;20025;-84
2023/10/21 08:10:04;;;;;;;4.47;3.30;;;13.60;99.90;;;;;;5032676;28;20030;-86
2023/10/21 08:12:34;;;;;;;3.10;2.80;;;13.60;99.90;;;;;;5032942;28;20037;-89
2023/10/21 08:15:04;;;;;;;7.18;2.95;;;13.60;99.90;;;;;;5030867;28;20057;-82
2023/10/21 08:17:30;;;;;;;2.58;2.28;;;13.50;99.90;;;;;;5032282;28;20029;-83
2023/10/21 08:19:56;;;;;;;3.80;2.80;;;13.50;99.90;;;;;;5032553;28;20026;-82
2023/10/21 08:22:22;;;;;;;3.63;3.33;;;13.50;99.90;;;;;;5032575;28;20474;-89
2023/10/21 08:24:47;;;;;;;5.72;3.72;;;13.40;99.90;;;;;;5032868;28;20025;-83
2023/10/21 08:27:13;;;;;;;3.40;3.10;;;13.40;99.90;;;;;;5032731;28;20481;-87
2023/10/21 08:29:38;;;;;;;4.25;3.42;;;13.40;99.90;;;;;;5031973;28;20469;-86
2023/10/21 08:32:04;;;;;;;4.25;2.30;;;13.40;99.90;;;;;;5032879;28;20041;-83
2023/10/21 08:34:31;;;;;;;2.65;2.45;;;13.50;99.90;;;;;;5029564;28;20029;-83
2023/10/21 08:36:57;;;;;;;2.50;2.20;;;13.50;99.90;;;;;;5015314;28;20057;-84
2023/10/21 08:39:22;;;;;;;2.10;1.90;;;13.50;99.90;;;;;;5024842;28;20064;-84
2023/10/21 08:41:49;;;;;;;4.55;2.05;;;13.50;99.90;;;;;;5023759;28;20029;-84
2023/10/21 08:44:16;;;;;;;1.83;1.10;;;13.50;99.90;;;;;;5011668;28;20041;-82
2023/10/21 08:46:42;;;;;;;2.55;1.23;;;13.50;99.90;;;;;;5020189;28;20115;-82
2023/10/21 08:49:12;;;;;;;2.20;1.10;;;13.50;99.90;;;;;;5021132;28;20139;-83
2023/10/21 08:51:38;;;;;;;1.75;1.33;;;13.60;99.90;;;;;;5017746;28;20030;-88
2023/10/21 08:54:03;;;;;;;2.35;1.48;;;13.60;99.90;;;;;;5024237;28;20029;-87
2023/10/21 08:56:33;;;;;;;1.60;0.80;;;13.60;99.90;;;;;;5024116;28;20037;-85
2023/10/21 08:59:02;;;;;;;1.63;0.95;;;13.50;99.90;;;;;;5023589;28;20032;-86
2023/10/21 09:01:28;;;;;;;3.25;0.88;;;13.60;99.90;;;;;;5026126;28;20108;-86
2023/10/21 09:03:55;;;;;;;3.10;1.27;;;13.90;99.90;;;;;;5017600;28;20042;-88
2023/10/21 09:06:21;;;;;;;9.70;1.10;;;13.60;99.90;;;;;;5018539;28;20017;-84
2023/10/21 09:08:48;;;;;;;2.28;0.85;;;14.60;99.90;;;;;;5027090;28;20032;-82
2023/10/21 09:11:18;;;;;;;1.17;1.08;;;13.60;99.90;;;;;;5012021;28;20022;-84
2023/10/21 09:13:44;;;;;;;3.08;1.10;;;13.60;99.90;;;;;;5015920;28;20540;-83
2023/10/21 09:16:20;;;;;;;2.67;0.90;;;13.60;99.90;;;;;;5012104;28;20030;-82
2023/10/21 09:19:03;;;;;;;2.42;0.82;;;13.60;99.90;;;;;;5030008;28;20080;-88
2023/10/21 09:21:42;;;;;;;1.48;0.57;;;13.50;99.90;;;;;;5024697;28;20068;-87
2023/10/21 09:24:11;;;;;;;1.58;0.90;;;13.60;99.90;;;;;;5023463;28;20509;-85
2023/10/21 09:26:41;;;;;;;2.05;0.75;;;13.60;99.90;;;;;;5025806;28;20030;-84
2023/10/21 09:29:19;;;;;;;1.48;0.70;;;13.60;99.90;;;;;;5012461;28;20025;-85
2023/10/21 09:31:52;;;;;;;4.18;0.80;;;13.60;99.90;;;;;;5012943;28;20050;-82
2023/10/21 09:34:29;;;;;;;1.48;0.50;;;13.70;99.90;;;;;;5014351;28;20109;-84
2023/10/21 09:36:59;;;;;;;5.22;0.70;;;13.70;99.90;;;;;;5027215;28;20108;-83
2023/10/21 09:39:26;;;;;;;3.15;0.63;;;13.70;99.90;;;;;;5018498;28;20021;-83
2023/10/21 09:41:52;;;;;;;3.50;0.80;;;13.80;99.90;;;;;;5030670;28;20037;-84
2023/10/21 09:44:18;;;;;;;3.53;0.88;;;13.70;99.90;;;;;;5026090;28;20091;-84
2023/10/21 09:46:45;;;;;;;1.20;0.80;;;14.30;99.90;;;;;;5018000;28;20026;-84
2023/10/21 09:49:13;;;;;;;1.75;0.55;;;13.80;99.90;;;;;;5028140;28;20046;-82
2023/10/21 09:51:53;;;;;;;1.98;0.82;;;14.70;99.90;;;;;;5032352;28;20853;-83
2023/10/21 09:54:28;;;;;;;4.30;0.90;;;14.30;99.90;;;;;;5015498;28;20022;-83
2023/10/21 09:56:55;;;;;;;4.80;1.42;;;13.90;99.90;;;;;;5016445;28;20488;-83
2023/10/21 09:59:23;;;;;;;5.28;1.10;;;13.90;99.90;;;;;;5015072;28;20425;-86
2023/10/21 10:01:52;;;;;;;4.85;0.77;;;13.90;99.90;;;;;;5024134;28;20034;-84
2023/10/21 10:04:20;;;;;;;4.40;0.90;;;13.90;99.90;;;;;;5015897;28;20433;-82
2023/10/21 10:06:55;;;;;;;4.53;0.90;;;14.00;99.90;;;;;;5022737;28;20088;-87
2023/10/21 10:09:22;;;;;;;4.20;1.35;;;14.00;99.90;;;;;;5022538;28;20037;-84
2023/10/21 10:11:48;;;;;;;2.88;1.35;;;13.90;99.90;;;;;;5029802;28;20045;-84
2023/10/21 10:14:16;;;;;;;4.50;1.20;;;14.10;99.90;;;;;;5031701;28;20060;-83
2023/10/21 10:16:44;;;;;;;6.00;1.33;;;14.10;99.90;;;;;;5022466;28;20033;-86
2023/10/21 10:19:12;;;;;;;4.40;1.10;;;14.10;99.90;;;;;;5023961;28;20113;-85
2023/10/21 10:21:41;;;;;;;3.03;1.17;;;14.10;99.90;;;;;;5020713;28;20071;-83
2023/10/21 10:24:07;;;;;;;2.05;1.08;;;14.10;99.90;;;;;;5027606;28;20101;-83
2023/10/21 10:26:36;;;;;;;5.95;1.17;;;14.20;99.90;;;;;;5024467;28;20034;-84
2023/10/21 10:29:18;;;;;;;3.97;1.05;;;14.20;99.90;;;;;;5018717;28;20351;-84
2023/10/21 10:31:47;;;;;;;5.88;0.98;;;14.30;99.90;;;;;;5024292;28;20041;-84
2023/10/21 10:34:15;;;;;;;5.72;1.08;;;14.30;99.90;;;;;;5017817;28;20036;-84
2023/10/21 10:36:41;;;;;;;2.92;1.10;;;14.30;99.90;;;;;;5022564;28;20029;-83
2023/10/21 10:39:07;;;;;;;7.32;0.90;;;14.40;99.90;;;;;;5024821;28;20101;-82
2023/10/21 10:41:47;;;;;;;3.90;1.27;;;14.40;99.90;;;;;;5019045;28;20080;-82
2023/10/21 10:44:15;;;;;;;2.75;0.90;;;14.40;99.90;;;;;;5022509;28;20101;-82
2023/10/21 10:46:41;;;;;;;2.92;1.05;;;14.50;99.90;;;;;;5026845;28;20400;-83
2023/10/21 10:49:08;;;;;;;3.30;0.98;;;15.40;99.90;;;;;;5022148;28;20104;-82
2023/10/21 10:51:43;;;;;;;2.97;0.90;;;14.30;99.90;;;;;;5025738;28;20041;-86
2023/10/21 10:54:15;;;;;;;3.10;1.38;;;14.40;99.90;;;;;;5023237;28;20032;-85
2023/10/21 10:56:49;;;;;;;2.22;1.10;;;15.10;99.90;;;;;;5017324;28;20062;-87
2023/10/21 10:59:17;;;;;;;5.00;0.98;;;15.10;99.90;;;;;;5040183;28;20022;-87
2023/10/21 11:01:44;;;;;;;5.05;1.40;;;15.10;99.90;;;;;;5025753;28;20037;-84
2023/10/21 11:04:09;;;;;;;5.38;1.00;;;15.10;99.90;;;;;;5029786;28;20068;-85
2023/10/21 11:06:37;;;;;;;4.20;1.05;;;15.90;99.90;;;;;;5034538;28;20489;-85
2023/10/21 11:09:30;;;;;;;5.00;1.27;;;16.00;99.90;;;;;;5036434;28;20025;-84
2023/10/21 11:11:57;;;;;;;3.30;1.25;;;14.40;99.90;;;;;;5032931;28;20088;-81
2023/10/21 11:14:24;;;;;;;2.72;1.30;;;14.50;99.90;;;;;;5033324;28;20037;-86
2023/10/21 11:16:50;;;;;;;10.52;1.60;;;14.40;99.90;;;;;;5033301;28;20039;-84
2023/10/21 11:19:16;;;;;;;3.58;1.00;;;14.70;99.90;;;;;;5033398;28;20104;-83
2023/10/21 11:21:43;;;;;;;6.03;1.30;;;15.10;99.90;;;;;;5033873;28;20056;-82
2023/10/21 11:24:10;;;;;;;5.78;1.38;;;14.50;99.90;;;;;;5033528;28;20488;-84
2023/10/21 11:26:36;;;;;;;6.97;1.20;;;14.50;99.90;;;;;;5033916;28;20026;-83
2023/10/21 11:29:06;;;;;;;3.22;1.20;;;15.20;99.90;;;;;;5033949;28;20021;-83
2023/10/21 11:31:36;;;;;;;4.93;1.33;;;14.50;99.90;;;;;;5033002;28;20033;-83
2023/10/21 11:34:12;;;;;;;10.73;1.63;;;14.50;99.90;;;;;;5033976;28;20046;-83
2023/10/21 11:36:46;;;;;;;5.40;0.90;;;14.50;99.90;;;;;;5031767;28;20033;-83
2023/10/21 11:39:14;;;;;;;5.20;1.30;;;14.50;99.90;;;;;;5033019;28;20028;-83
2023/10/21 11:41:47;;;;;;;4.97;1.20;;;14.60;99.90;;;;;;5034494;28;20025;-85
2023/10/21 11:44:17;;;;;;;6.50;1.80;;;14.60;99.90;;;;;;5020072;28;20056;-86
2023/10/21 11:46:43;;;;;;;4.13;1.17;;;14.60;99.90;;;;;;5035631;28;20534;-86
2023/10/21 11:49:15;;;;;;;8.25;1.75;;;14.40;99.90;;;;;;5034549;28;20037;-82
2023/10/21 11:51:52;;;;;;;5.13;1.35;;;14.80;99.90;;;;;;5023870;28;20032;-83
2023/10/21 11:54:55;;;;;;;3.30;1.23;;;14.60;99.90;;;;;;5034063;28;20025;-83
2023/10/21 11:57:41;;;;;;;5.47;1.50;;;14.50;99.90;;;;;;5030316;28;20144;-83
2023/10/21 12:11:46;;;;;;;6.70;1.40;;;14.80;99.90;;;;;;5032726;28;20596;-83
2023/10/21 12:16:59;;;;;;;5.78;1.70;;;15.10;99.90;;;;;;5032978;28;20024;-83
2023/10/21 12:40:39;;;;;;;5.80;1.63;;;15.00;99.90;;;;;;5031867;28;20091;-84
2023/10/21 12:45:50;;;;;;;7.10;1.77;;;15.10;99.90;;;;;;5012336;28;20105;-86
2023/10/21 12:48:19;;;;;;;6.38;2.00;;;14.90;99.90;;;;;;5017002;28;20439;-86
2023/10/21 12:50:52;;;;;;;4.97;1.60;;;15.10;99.90;;;;;;5015958;28;20029;-84
2023/10/21 12:53:18;;;;;;;8.35;1.60;;;15.00;99.90;;;;;;5012940;28;20033;-85
2023/10/21 12:55:44;;;;;;;9.05;2.15;;;16.10;99.90;;;;;;5018548;28;20022;-87
2023/10/21 12:58:10;;;;;;;7.45;2.05;;;15.10;99.90;;;;;;5030795;28;20120;-84
2023/10/21 13:00:36;;;;;;;5.43;1.60;;;15.10;99.90;;;;;;5023119;28;20478;-83
2023/10/21 13:03:09;;;;;;;9.35;1.85;;;15.10;99.90;;;;;;5022175;28;20030;-83
2023/10/21 13:05:35;;;;;;;8.25;1.92;;;15.10;99.90;;;;;;5027924;28;20076;-83
2023/10/21 13:08:07;;;;;;;7.18;1.70;;;15.00;99.90;;;;;;5030248;28;20503;-83
2023/10/21 13:10:32;;;;;;;13.82;2.65;;;15.00;99.90;;;;;;5031534;28;20026;-83
2023/10/21 13:13:01;;;;;;;5.63;1.50;;;15.00;99.90;;;;;;5031699;28;20481;-83
2023/10/21 13:15:26;;;;;;;9.57;2.00;;;15.00;99.90;;;;;;5032193;28;20055;-82
2023/10/21 13:17:52;;;;;;;9.25;2.00;;;14.80;99.90;;;;;;5029748;28;20804;-83
2023/10/21 13:20:18;;;;;;;9.77;3.05;;;15.00;99.90;;;;;;5030819;28;20018;-83
2023/10/21 13:22:44;;;;;;;6.32;1.60;;;15.10;99.90;;;;;;5030136;28;20033;-83